Cardiff-Wales, United Kingdom

9:43 PM GMT on February 06, 2016 (GMT +0000)
Cardiff | | Change Station
CLOSE
Current Station
Airport
Location: Cardiff-Wales,
Elevation: 220 ft
Nearby Weather Stations

Elev 220 ft 51.40 °N, 3.34 °W | Updated 23 minutes ago

Partly Cloudy
Partly Cloudy
46 °F
Feels Like 41 °F
N
13
Wind Variable Wind from WSW

Today
High -- | Low -- °F
--% Chance of Precip.
Yesterday
High -- | Low -- °F
Precip. -- in
Pressure 29.09 in
Visibility 6.2 miles
Clouds Few 2700 ft
Windchill 41 °F
Dew Point 43 °F
Humidity 87%
Rainfall 0.00 in
Snow Depth Not available.
7:44 AM 5:11 PM
Waning Crescent, 4% visible
METAR EGFF 062120Z AUTO 24011KT 9999 FEW027 08/06 Q0985
Pressure 29.09 in
Visibility 6.2 miles
Clouds Few 2700 ft
Windchill 41 °F
Dew Point 43 °F
Humidity 87%
Rainfall 0.00 in
Snow Depth Not available.
7:44 AM 5:11 PM
Waning Crescent, 4% visible
METAR EGFF 062120Z AUTO 24011KT 9999 FEW027 08/06 Q0985

10-Day Weather Forecast

Almanac

Astronomy

Feb. 06, 2016 Rise Set
Actual Time
Civil Twilight
Nautical Twilight
Astronomical Twilight
Moon
Length of Visible Light
Length of Day
Tomorrow will be .
, % of the Moon is Illuminated

Today's Extremes

Country Highs Country Lows

Community

WunderPhotos

Upload Photos

1,891,051 photos uploaded!

WunderBlog® & News

Nearby

Air Quality

  Air Quality AQ Index Pollutant
Not available.

Snow Depth

Station Depth Elevation

Earthquake Activity

City Distance Mag. Time & Date
Minimum magnitude displayed is 2.5.

Coastal Water Temperatures

Place Temperature

Stations

Nearby Weather Stations

Station Location Temp. Windchill Dew Point Humidity Wind Precip. Elev Updated Type